• pl
  • eng

Awiacja
Click on the bold red name to decode a message. 18:01 23.07.2019
  • WIND
  • SIGNIFICANT EURO
  • SIGNIFICANT
  • SIGMET
  • AIRMET
  • TAF FC
  • TAF FT
  • METAR GG30
  • METAR GG00


METAR EPBY 231600Z 02005KT 340V050 9999 SCT023 BKN027 22/16 Q1019 =

METAR EPGD 231600Z 30007KT 270V330 9999 FEW003 BKN007 18/17 Q1019 =

METAR EPKK 231600Z 29005KT 250V320 9999 FEW020 BKN035 19/16 Q1020 =

METAR EPKT 231600Z 32006KT 9999 FEW014 BKN019 19/15 Q1020 =

METAR EPLB 231600Z 31012KT 9999 FEW046 24/12 Q1017 =

METAR EPLL 231600Z 34006KT 300V010 9999 BKN030 OVC034 21/14 Q1019 =

METAR EPMO 231600Z 32007KT 300V360 9999 SCT036 BKN043 22/13 Q1018 =

METAR EPPO 231600Z 33007KT 9999 BKN034 23/16 Q1020 =

METAR EPRA 231600Z NIL=

METAR EPRZ 231600Z 31009KT 9999 FEW040 21/14 Q1018 =

METAR EPSC 231600Z 32010KT CAVOK 26/16 Q1019 =

METAR EPSY 231600Z 31007KT 260V350 9999 FEW040 22/13 Q1018=

METAR EPWA 231600Z 33007KT 9999 BKN046 22/13 Q1019 NOSIG=

METAR EPWR 231600Z 02008KT 350V060 CAVOK 26/16 Q1020 =

METAR EPZG 231600Z 35007KT 300V030 9999 FEW042 26/17 Q1020 =
Awiacja.imgw.pl jest pogodowym serwisem informacyjnym
Instytutu Meteorologii i Gospodarki Wodnej Państwowego Instytutu Badawczego.
Copyright IMGW PIB 2009-2011© Wszelkie prawa zastrzeżone.